Time;durP1;ratioP1;P1;durP2;ratioP2;P2;SDS_P1;SDS_P2;PMS_P1;PMS_P2;Temp;Humidity;BMP_temperature;BMP_pressure;BME280_temperature;BME280_humidity;BME280_pressure;Samples;Min_cycle;Max_cycle;Signal;HPM_P1;HPM_P2
2022/08/07 00:01:04;;;;;;;5.97;4.03;;;;;;;15.39;67.13;102616.66;5036446;28;20382;-73
2022/08/07 00:03:29;;;;;;;4.93;3.38;;;;;;;15.30;67.39;102612.06;5046342;28;20043;-73
2022/08/07 00:05:54;;;;;;;5.35;3.35;;;;;;;15.28;67.43;102607.91;5043026;28;20025;-72
2022/08/07 00:08:21;;;;;;;5.65;3.22;;;;;;;15.26;67.46;102618.50;5040198;28;20025;-71
2022/08/07 00:10:47;;;;;;;4.72;3.30;;;;;;;15.21;68.43;102612.78;5039443;28;20025;-73
2022/08/07 00:13:14;;;;;;;4.93;3.65;;;;;;;15.13;67.92;102609.84;5032293;28;20075;-72
2022/08/07 00:15:39;;;;;;;7.70;3.72;;;;;;;15.17;67.81;102595.63;5047138;28;20100;-71
2022/08/07 00:18:05;;;;;;;5.45;3.42;;;;;;;15.21;67.51;102599.69;5042753;28;20482;-71
2022/08/07 00:20:31;;;;;;;5.72;3.42;;;;;;;15.04;67.82;102602.69;5042294;28;20087;-72
2022/08/07 00:22:56;;;;;;;6.63;3.67;;;;;;;15.10;67.84;102605.69;5046300;28;20107;-72
2022/08/07 00:25:23;;;;;;;6.30;3.80;;;;;;;15.06;68.10;102592.97;5032040;28;20026;-73
2022/08/07 00:27:49;;;;;;;4.78;3.30;;;;;;;14.98;67.74;102590.09;5039265;28;20076;-73
2022/08/07 00:30:15;;;;;;;7.18;3.75;;;;;;;15.07;67.79;102587.63;5024766;28;20025;-72
2022/08/07 00:32:40;;;;;;;7.25;4.00;;;;;;;15.04;68.00;102587.84;5031855;28;20057;-75
2022/08/07 00:35:06;;;;;;;5.43;3.72;;;;;;;14.97;68.06;102578.81;5045597;28;20037;-72
2022/08/07 00:37:31;;;;;;;5.65;3.80;;;;;;;14.95;68.70;102587.69;5040862;28;20380;-72
2022/08/07 00:39:57;;;;;;;5.72;3.67;;;;;;;14.98;68.19;102579.63;5043220;28;20097;-73
2022/08/07 00:42:23;;;;;;;5.38;3.60;;;;;;;14.94;68.12;102578.19;5038011;28;20036;-72
2022/08/07 00:44:48;;;;;;;4.93;3.45;;;;;;;14.97;68.24;102583.19;5034728;28;20033;-72
2022/08/07 00:47:14;;;;;;;6.10;3.60;;;;;;;14.94;68.07;102572.94;5038764;28;20477;-71
2022/08/07 00:49:39;;;;;;;5.63;3.72;;;;;;;14.94;68.20;102578.19;5038402;28;20033;-72
2022/08/07 00:52:06;;;;;;;6.95;3.78;;;;;;;14.76;68.56;102577.72;5035378;28;20494;-71
2022/08/07 00:54:31;;;;;;;5.65;3.83;;;;;;;14.75;68.81;102574.28;5036727;28;20043;-71
2022/08/07 00:56:57;;;;;;;5.13;3.60;;;;;;;14.83;68.17;102581.56;5024933;28;20682;-72
2022/08/07 00:59:22;;;;;;;6.45;3.67;;;;;;;14.78;68.71;102567.97;5031268;28;20236;-71
2022/08/07 01:01:49;;;;;;;6.38;4.30;;;;;;;14.70;68.87;102558.09;5021622;28;20469;-72
2022/08/07 01:04:15;;;;;;;6.22;3.83;;;;;;;14.73;68.85;102564.88;5040119;28;20355;-72
2022/08/07 01:06:41;;;;;;;7.82;4.10;;;;;;;14.76;68.61;102564.66;5039259;28;20053;-72
2022/08/07 01:09:06;;;;;;;6.78;4.35;;;;;;;14.69;68.78;102564.28;5016098;28;20115;-72
2022/08/07 01:11:32;;;;;;;5.80;4.13;;;;;;;14.80;68.28;102561.72;5041140;28;20040;-72
2022/08/07 01:13:58;;;;;;;7.40;4.60;;;;;;;14.73;68.47;102565.69;5041327;28;20381;-72
2022/08/07 01:16:24;;;;;;;9.40;4.70;;;;;;;14.53;69.55;102553.25;5045350;28;20036;-73
2022/08/07 01:18:49;;;;;;;9.57;4.35;;;;;;;14.61;69.51;102561.34;5044627;28;20033;-72
2022/08/07 01:21:17;;;;;;;6.30;4.45;;;;;;;14.64;69.29;102565.53;5045665;28;20032;-72
2022/08/07 01:23:45;;;;;;;7.43;4.32;;;;;;;14.65;69.52;102568.03;5041849;28;20088;-72
2022/08/07 01:26:13;;;;;;;7.95;4.35;;;;;;;14.56;69.92;102559.06;5046501;28;20021;-72
2022/08/07 01:28:42;;;;;;;7.25;4.20;;;;;;;14.54;69.55;102549.69;5045384;28;20073;-72
2022/08/07 01:31:08;;;;;;;7.88;4.50;;;;;;;14.62;69.91;102552.56;5023935;28;20032;-72
2022/08/07 01:33:34;;;;;;;8.88;5.10;;;;;;;14.45;70.19;102556.38;5048206;28;20074;-72
2022/08/07 01:36:01;;;;;;;7.18;4.80;;;;;;;14.47;70.43;102554.50;5046923;28;20020;-73
2022/08/07 01:38:28;;;;;;;6.70;5.10;;;;;;;14.51;69.80;102555.13;5047768;28;20039;-75
2022/08/07 01:40:58;;;;;;;8.57;4.95;;;;;;;14.40;70.06;102557.63;5042805;28;20507;-73
2022/08/07 01:43:26;;;;;;;7.30;5.13;;;;;;;14.39;70.30;102545.50;5026476;28;20075;-72
2022/08/07 01:45:52;;;;;;;7.63;4.70;;;;;;;14.46;70.30;102551.97;5040966;28;20112;-72
2022/08/07 01:48:18;;;;;;;7.57;4.72;;;;;;;14.37;70.49;102542.16;5047210;28;20368;-72
2022/08/07 01:50:48;;;;;;;7.50;4.65;;;;;;;14.35;70.02;102540.50;5048354;28;20037;-72
2022/08/07 01:53:18;;;;;;;7.57;5.03;;;;;;;14.17;70.75;102531.38;5040749;28;20029;-72
2022/08/07 01:55:48;;;;;;;7.40;5.07;;;;;;;14.37;70.21;102539.56;5041856;28;20056;-72
2022/08/07 01:58:17;;;;;;;8.00;4.70;;;;;;;14.29;70.09;102540.94;5043706;28;20028;-73
2022/08/07 02:00:44;;;;;;;6.78;4.90;;;;;;;14.21;70.62;102547.63;5036964;28;20052;-72
2022/08/07 02:03:13;;;;;;;7.05;4.88;;;;;;;14.18;70.29;102548.69;5044584;28;20032;-72
2022/08/07 02:05:45;;;;;;;8.68;5.20;;;;;;;14.19;70.64;102550.34;5034217;28;20029;-73
2022/08/07 02:08:14;;;;;;;6.95;5.03;;;;;;;14.27;70.34;102545.41;5049431;28;20029;-72
2022/08/07 02:10:41;;;;;;;;;;;;;;;14.52;68.67;102546.34;5058903;28;20484;-72
2022/08/07 02:13:07;;;;;;;6.75;5.22;;;;;;;14.23;69.85;102541.38;5049754;28;19986;-72
2022/08/07 02:15:36;;;;;;;7.47;5.25;;;;;;;14.26;69.88;102541.13;5044806;28;20044;-73
2022/08/07 02:18:03;;;;;;;8.82;5.40;;;;;;;14.02;70.62;102535.03;5034175;28;20029;-73
2022/08/07 02:20:30;;;;;;;8.27;5.40;;;;;;;14.10;71.10;102540.53;5031719;28;20492;-72
2022/08/07 02:23:00;;;;;;;8.07;5.57;;;;;;;13.94;71.21;102539.94;5047473;28;20037;-72
2022/08/07 02:25:28;;;;;;;7.88;5.38;;;;;;;13.98;71.31;102536.16;5047888;28;20060;-72
2022/08/07 02:27:55;;;;;;;8.70;5.70;;;;;;;14.09;71.01;102536.25;5042110;28;20052;-72
2022/08/07 02:30:22;;;;;;;7.30;5.43;;;;;;;14.04;71.29;102526.13;5036259;28;20092;-72
2022/08/07 02:32:49;;;;;;;8.10;5.53;;;;;;;13.99;71.19;102532.59;5038685;28;20040;-73
2022/08/07 02:35:17;;;;;;;9.35;5.70;;;;;;;13.95;71.58;102536.38;5038182;28;20559;-72
2022/08/07 02:37:45;;;;;;;8.50;5.63;;;;;;;13.98;71.53;102533.56;5038442;28;20036;-73
2022/08/07 02:40:11;;;;;;;8.95;5.60;;;;;;;13.98;71.33;102533.56;5042152;28;20013;-73
2022/08/07 02:42:37;;;;;;;8.27;5.30;;;;;;;13.87;71.48;102529.06;5039800;28;20023;-72
2022/08/07 02:45:05;;;;;;;9.00;5.93;;;;;;;13.89;71.61;102526.38;5041538;28;20028;-72
2022/08/07 02:47:31;;;;;;;8.73;5.70;;;;;;;13.96;70.82;102519.78;5047910;28;20791;-73
2022/08/07 02:49:56;;;;;;;7.68;5.65;;;;;;;13.95;71.22;102525.97;5045122;28;20037;-75
2022/08/07 02:52:28;;;;;;;7.72;5.65;;;;;;;13.88;71.56;102524.69;5035962;28;20493;-72
2022/08/07 02:54:58;;;;;;;8.38;6.40;;;;;;;13.89;71.26;102521.16;5043965;28;20035;-72
2022/08/07 02:57:24;;;;;;;7.85;5.95;;;;;;;13.89;71.18;102513.34;5037701;28;20037;-72
2022/08/07 02:59:51;;;;;;;8.43;6.20;;;;;;;13.70;71.67;102517.19;5030973;28;20025;-72
2022/08/07 03:02:17;;;;;;;10.23;6.32;;;;;;;13.73;70.98;102522.19;5047414;28;20136;-72
2022/08/07 03:04:45;;;;;;;8.00;6.20;;;;;;;13.78;71.51;102520.13;5046109;28;20528;-72
2022/08/07 03:07:11;;;;;;;8.03;5.83;;;;;;;13.66;72.13;102520.94;5046897;28;20100;-72
2022/08/07 03:09:36;;;;;;;10.02;6.53;;;;;;;13.66;72.08;102514.91;5040661;28;20025;-72
2022/08/07 03:12:04;;;;;;;8.90;6.43;;;;;;;13.65;72.17;102519.28;5047107;28;20025;-72
2022/08/07 03:14:31;;;;;;;8.57;6.55;;;;;;;13.68;71.99;102513.03;5053684;28;20040;-73
2022/08/07 03:16:57;;;;;;;9.85;6.63;;;;;;;13.63;72.33;102513.31;5050694;28;20103;-72
2022/08/07 03:19:23;;;;;;;9.48;6.45;;;;;;;13.56;72.24;102509.47;5038981;28;20465;-72
2022/08/07 03:21:49;;;;;;;9.15;6.60;;;;;;;13.60;72.26;102516.16;5021084;28;20033;-72
2022/08/07 03:24:15;;;;;;;9.23;7.18;;;;;;;13.58;71.66;102510.19;5042039;28;20481;-73
2022/08/07 03:26:42;;;;;;;7.82;6.43;;;;;;;13.57;72.03;102513.75;5043265;28;20063;-72
2022/08/07 03:29:10;;;;;;;9.23;6.88;;;;;;;13.48;72.48;102509.16;5035908;28;20040;-73
2022/08/07 03:31:37;;;;;;;;;;;;;;;13.84;70.84;102523.25;5037672;28;20032;-75
2022/08/07 03:34:04;;;;;;;9.18;7.15;;;;;;;13.53;71.93;102517.47;5037962;28;19909;-72
2022/08/07 03:36:32;;;;;;;8.10;6.75;;;;;;;13.50;72.36;102526.34;5038022;28;20029;-73
2022/08/07 03:39:03;;;;;;;10.38;7.30;;;;;;;13.42;73.17;102513.00;5040965;28;20044;-72
2022/08/07 03:41:30;;;;;;;8.88;6.97;;;;;;;13.54;72.01;102516.56;5042426;28;20120;-72
2022/08/07 03:43:56;;;;;;;8.57;7.10;;;;;;;13.52;72.16;102518.41;5037382;28;20032;-72
2022/08/07 03:46:23;;;;;;;8.48;6.35;;;;;;;13.54;72.69;102513.97;5038309;28;20091;-72
2022/08/07 03:48:49;;;;;;;8.80;6.88;;;;;;;13.43;73.11;102524.28;5043712;28;20025;-72
2022/08/07 03:51:14;;;;;;;8.60;6.82;;;;;;;13.39;72.77;102522.78;5042912;28;20368;-72
2022/08/07 03:53:40;;;;;;;8.85;7.20;;;;;;;13.44;72.82;102526.75;5043170;28;20453;-72
2022/08/07 03:56:09;;;;;;;8.82;7.32;;;;;;;13.35;72.88;102516.09;5046801;28;20071;-74
2022/08/07 03:58:34;;;;;;;9.25;7.15;;;;;;;13.24;73.42;102520.25;5040372;28;20477;-72
2022/08/07 04:01:02;;;;;;;10.40;7.53;;;;;;;13.34;72.77;102524.88;5036467;28;20055;-72
2022/08/07 04:03:28;;;;;;;9.90;7.57;;;;;;;13.25;73.41;102516.72;5041848;28;20028;-71
2022/08/07 04:05:53;;;;;;;8.40;7.03;;;;;;;13.25;72.83;102524.56;5038098;28;20071;-72
2022/08/07 04:08:19;;;;;;;9.18;7.28;;;;;;;13.20;73.71;102521.38;5039738;28;20025;-73
2022/08/07 04:10:47;;;;;;;9.57;8.10;;;;;;;13.26;73.09;102522.78;5041960;28;20071;-72
2022/08/07 04:13:14;;;;;;;8.48;7.60;;;;;;;13.21;73.54;102524.84;5045419;28;20017;-75
2022/08/07 04:15:40;;;;;;;9.77;8.02;;;;;;;13.12;73.83;102525.41;5044590;28;20032;-71
2022/08/07 04:18:06;;;;;;;8.77;7.88;;;;;;;13.16;73.35;102517.28;5040741;28;20041;-73
2022/08/07 04:20:31;;;;;;;10.60;8.07;;;;;;;13.25;73.09;102529.75;5042899;28;20018;-72
2022/08/07 04:22:58;;;;;;;10.88;8.30;;;;;;;13.16;73.87;102530.31;5040235;28;20028;-72
2022/08/07 04:25:25;;;;;;;10.48;8.07;;;;;;;13.08;74.17;102535.22;5044271;28;20033;-73
2022/08/07 04:27:51;;;;;;;9.88;8.15;;;;;;;13.19;74.26;102540.56;5042878;28;20060;-72
2022/08/07 04:30:17;;;;;;;9.85;8.20;;;;;;;13.05;73.58;102530.19;5039118;28;20033;-72
2022/08/07 04:32:44;;;;;;;8.95;8.02;;;;;;;13.07;74.01;102530.91;5036389;28;20496;-72
2022/08/07 04:35:09;;;;;;;9.35;8.20;;;;;;;13.12;73.95;102541.88;5045981;28;20060;-72
2022/08/07 04:37:35;;;;;;;9.48;8.30;;;;;;;13.06;74.91;102537.06;5035361;28;20065;-72
2022/08/07 04:40:02;;;;;;;9.45;8.07;;;;;;;13.14;74.25;102547.84;5033857;28;20116;-72
2022/08/07 04:42:30;;;;;;;9.85;8.73;;;;;;;13.17;74.24;102550.22;5038311;28;20029;-72
2022/08/07 04:44:57;;;;;;;10.85;9.05;;;;;;;13.12;74.71;102549.69;5045254;28;20056;-72
2022/08/07 04:47:51;;;;;;;10.38;8.90;;;;;;;13.22;74.62;102550.78;5038866;28;20365;-72
2022/08/07 04:50:33;;;;;;;11.20;8.85;;;;;;;13.12;74.59;102547.06;5029749;28;20098;-71
2022/08/07 04:53:03;;;;;;;10.63;9.40;;;;;;;13.16;74.44;102553.78;5035744;28;20374;-71
2022/08/07 04:55:52;;;;;;;11.07;9.18;;;;;;;13.24;74.54;102551.50;5023513;28;20469;-72
2022/08/07 04:58:30;;;;;;;10.45;9.35;;;;;;;13.18;74.47;102546.69;5029030;28;20055;-74
2022/08/07 05:01:02;;;;;;;11.60;9.13;;;;;;;13.16;74.60;102543.34;5049081;28;20029;-72
2022/08/07 05:03:50;;;;;;;11.77;9.25;;;;;;;13.19;74.83;102548.38;5046160;28;20030;-73
2022/08/07 05:06:24;;;;;;;10.90;9.32;;;;;;;13.21;74.69;102556.13;5040187;28;20103;-72
2022/08/07 05:09:09;;;;;;;12.07;9.02;;;;;;;13.26;73.52;102554.88;5044701;28;20033;-72
2022/08/07 05:11:41;;;;;;;11.13;8.95;;;;;;;13.32;73.65;102558.03;5045280;28;20020;-73
2022/08/07 05:14:19;;;;;;;12.07;9.63;;;;;;;13.22;74.12;102561.22;5047314;28;20036;-71
2022/08/07 05:16:47;;;;;;;10.55;8.82;;;;;;;13.35;73.75;102552.59;5047641;28;20031;-71
2022/08/07 05:19:19;;;;;;;10.88;8.95;;;;;;;13.28;73.97;102553.00;5041446;28;20021;-73
2022/08/07 05:21:52;;;;;;;12.07;9.50;;;;;;;13.29;74.46;102553.81;5044127;28;20033;-71
2022/08/07 05:24:19;;;;;;;10.90;9.65;;;;;;;13.33;73.66;102549.25;5043105;28;20103;-76
2022/08/07 05:26:47;;;;;;;11.60;9.35;;;;;;;13.39;73.44;102554.91;5045816;28;20048;-71
2022/08/07 05:29:15;;;;;;;11.13;9.40;;;;;;;13.36;73.92;102556.84;5043261;28;20098;-74
2022/08/07 05:31:43;;;;;;;10.63;9.52;;;;;;;13.41;73.62;102562.59;5039176;28;20112;-71
2022/08/07 05:34:15;;;;;;;11.82;9.70;;;;;;;13.38;74.07;102553.25;5034927;28;20021;-73
2022/08/07 05:36:46;;;;;;;10.75;9.65;;;;;;;13.45;73.62;102564.09;5041783;28;20029;-72
2022/08/07 05:39:14;;;;;;;10.95;9.80;;;;;;;13.42;73.40;102564.28;5033192;28;20036;-72
2022/08/07 05:41:42;;;;;;;10.63;9.50;;;;;;;13.48;73.17;102558.69;5035814;28;20037;-72
2022/08/07 05:44:09;;;;;;;11.02;9.93;;;;;;;13.52;74.05;102565.34;5030584;28;20466;-71
2022/08/07 05:46:37;;;;;;;12.00;10.32;;;;;;;13.52;73.67;102560.97;5031151;28;20361;-73
2022/08/07 05:49:06;;;;;;;12.10;10.15;;;;;;;13.54;73.62;102558.28;5038397;28;20632;-73
2022/08/07 05:51:31;;;;;;;11.90;10.48;;;;;;;13.67;73.90;102553.91;5039488;28;20543;-73
2022/08/07 05:53:57;;;;;;;11.65;10.30;;;;;;;13.69;73.42;102566.84;5046330;28;20033;-72
2022/08/07 05:56:23;;;;;;;12.30;10.32;;;;;;;13.69;73.48;102572.88;5041339;28;20370;-72
2022/08/07 05:58:49;;;;;;;11.77;10.43;;;;;;;13.69;73.54;102567.66;5033713;28;20090;-72
2022/08/07 06:01:17;;;;;;;11.45;9.95;;;;;;;13.95;72.82;102572.91;5023205;28;20060;-73
2022/08/07 06:03:49;;;;;;;11.32;10.13;;;;;;;13.93;72.75;102564.34;5030536;28;20055;-72
2022/08/07 06:06:16;;;;;;;11.93;10.25;;;;;;;13.98;72.98;102562.25;5042889;28;20469;-75
2022/08/07 06:08:42;;;;;;;11.98;10.38;;;;;;;13.94;72.97;102573.84;5040212;28;20095;-72
2022/08/07 06:11:08;;;;;;;12.30;10.63;;;;;;;13.97;73.04;102576.25;5044859;28;20025;-73
2022/08/07 06:13:36;;;;;;;13.15;10.40;;;;;;;14.08;73.16;102578.94;5044023;28;20540;-73
2022/08/07 06:16:05;;;;;;;11.95;10.65;;;;;;;14.14;73.35;102580.31;5036688;28;20078;-74
2022/08/07 06:18:31;;;;;;;11.65;10.45;;;;;;;14.18;73.52;102580.00;5029068;28;20021;-72
2022/08/07 06:20:59;;;;;;;12.00;10.45;;;;;;;14.18;73.25;102587.81;5014704;28;20389;-72
2022/08/07 06:23:25;;;;;;;12.23;10.70;;;;;;;14.34;72.64;102591.06;5038950;28;20029;-72
2022/08/07 06:25:50;;;;;;;12.40;11.10;;;;;;;14.34;73.01;102585.84;5042238;28;20469;-72
2022/08/07 06:28:16;;;;;;;12.10;10.80;;;;;;;14.45;71.72;102590.31;5043487;28;20048;-72
2022/08/07 06:30:42;;;;;;;13.05;11.10;;;;;;;14.44;71.74;102586.00;5035239;28;20381;-73
2022/08/07 06:33:07;;;;;;;12.32;10.95;;;;;;;14.62;71.20;102586.50;5047283;28;20488;-72
2022/08/07 06:35:36;;;;;;;12.15;10.85;;;;;;;14.69;71.10;102585.16;5038215;28;20032;-72
2022/08/07 06:38:05;;;;;;;12.48;11.15;;;;;;;14.76;71.21;102581.16;5047634;28;20060;-74
2022/08/07 06:40:41;;;;;;;13.10;11.25;;;;;;;14.72;71.38;102579.69;5042110;28;20048;-73
2022/08/07 06:43:09;;;;;;;13.10;11.75;;;;;;;14.78;71.14;102576.66;5032645;28;20078;-72
2022/08/07 06:45:34;;;;;;;12.90;11.68;;;;;;;14.89;70.88;102565.44;5032252;28;20040;-74
2022/08/07 06:48:00;;;;;;;13.55;12.25;;;;;;;14.89;70.08;102575.88;5030349;28;20029;-72
2022/08/07 06:50:28;;;;;;;12.85;11.63;;;;;;;14.88;71.17;102553.31;5015695;28;20041;-72
2022/08/07 06:52:55;;;;;;;14.05;11.73;;;;;;;15.19;70.45;102567.59;5021224;28;20039;-75
2022/08/07 06:55:30;;;;;;;14.60;13.10;;;;;;;15.26;71.08;102553.16;5044081;28;20025;-73
2022/08/07 06:58:02;;;;;;;14.68;12.88;;;;;;;15.31;70.08;102556.25;5043550;28;20565;-72
2022/08/07 07:00:32;;;;;;;14.18;12.65;;;;;;;15.45;69.28;102551.78;5034612;28;20036;-73
2022/08/07 07:02:58;;;;;;;14.48;12.98;;;;;;;15.47;69.25;102547.25;5044662;28;20116;-72
2022/08/07 07:05:24;;;;;;;16.88;13.13;;;;;;;15.62;68.17;102548.72;5043798;28;20519;-73
2022/08/07 07:07:49;;;;;;;14.10;12.73;;;;;;;15.62;68.65;102556.56;5041741;28;20488;-73
2022/08/07 07:10:25;;;;;;;15.00;13.45;;;;;;;15.60;68.64;102556.69;5028160;28;20541;-73
2022/08/07 07:12:53;;;;;;;14.50;13.10;;;;;;;15.76;68.99;102560.78;5045982;28;20457;-73
2022/08/07 07:15:24;;;;;;;15.48;13.27;;;;;;;15.89;69.22;102551.91;5037133;28;20052;-73
2022/08/07 07:18:08;;;;;;;14.85;13.02;;;;;;;16.04;69.45;102555.09;5040598;28;20037;-73
2022/08/07 07:20:38;;;;;;;14.63;12.30;;;;;;;16.02;68.97;102551.78;5045749;28;20054;-75
2022/08/07 07:23:05;;;;;;;14.73;13.02;;;;;;;16.04;68.92;102556.88;5028094;28;20373;-74
2022/08/07 07:25:32;;;;;;;14.25;12.45;;;;;;;16.25;69.42;102555.22;5035779;28;20127;-74
2022/08/07 07:28:11;;;;;;;13.90;11.60;;;;;;;16.38;68.85;102555.09;5015428;28;20424;-74
2022/08/07 07:30:40;;;;;;;13.80;10.85;;;;;;;16.46;67.47;102555.34;5020507;28;20025;-73
2022/08/07 07:33:09;;;;;;;12.95;11.40;;;;;;;16.52;67.80;102548.78;5032894;28;20068;-74
2022/08/07 07:35:36;;;;;;;11.68;10.48;;;;;;;16.57;66.92;102552.66;5036523;28;20040;-74
2022/08/07 07:38:04;;;;;;;11.85;10.13;;;;;;;16.70;66.69;102552.53;5033469;28;20075;-73
2022/08/07 07:40:32;;;;;;;13.05;10.77;;;;;;;16.78;66.95;102555.41;5032299;28;20461;-73
2022/08/07 07:43:02;;;;;;;14.20;10.90;;;;;;;16.94;66.94;102555.84;5031865;28;20044;-75
2022/08/07 07:45:29;;;;;;;12.65;11.27;;;;;;;17.11;67.21;102561.50;5032869;28;20337;-73
2022/08/07 07:47:56;;;;;;;12.32;10.05;;;;;;;17.20;66.28;102565.97;5025516;28;20355;-74
2022/08/07 07:50:23;;;;;;;11.18;9.57;;;;;;;17.29;65.18;102559.16;5039717;28;20029;-73
2022/08/07 07:52:51;;;;;;;10.77;9.00;;;;;;;17.41;64.74;102558.97;5031641;28;20048;-73
2022/08/07 07:55:18;;;;;;;10.23;8.02;;;;;;;17.53;64.01;102557.09;5033188;28;20021;-74
2022/08/07 07:57:44;;;;;;;10.18;8.75;;;;;;;17.63;64.02;102554.53;5041152;28;20063;-73
2022/08/07 08:00:12;;;;;;;11.55;9.20;;;;;;;17.68;62.65;102555.00;5034697;28;20144;-73
2022/08/07 08:02:40;;;;;;;11.43;9.40;;;;;;;17.68;61.91;102563.69;5040452;28;20147;-73
2022/08/07 08:05:07;;;;;;;;;;;;;;;17.92;63.69;102557.34;5033243;28;20021;-73
2022/08/07 08:07:35;;;;;;;11.35;9.60;;;;;;;17.90;62.90;102554.88;5026745;28;20031;-75
2022/08/07 08:10:02;;;;;;;10.68;8.80;;;;;;;18.02;62.10;102556.44;5011542;28;20039;-73
2022/08/07 08:12:30;;;;;;;10.18;8.30;;;;;;;18.15;60.26;102563.25;5028968;28;20460;-73
2022/08/07 08:14:55;;;;;;;9.98;8.18;;;;;;;18.27;60.56;102556.94;5034522;28;20034;-73
2022/08/07 08:17:22;;;;;;;9.80;7.60;;;;;;;18.42;60.54;102560.88;5032162;28;20345;-73
2022/08/07 08:19:51;;;;;;;9.98;7.55;;;;;;;18.48;60.08;102555.06;5045939;28;20369;-74
2022/08/07 08:27:53;;;;;;;9.13;6.78;;;;;;;18.68;58.57;102550.72;5041862;28;20098;-73
2022/08/07 08:30:19;;;;;;;9.43;6.97;;;;;;;18.88;58.09;102550.75;5011457;28;20508;-73
2022/08/07 08:32:51;;;;;;;8.23;6.20;;;;;;;18.98;57.35;102551.56;5029231;28;20021;-73
2022/08/07 08:35:20;;;;;;;9.43;6.78;;;;;;;19.09;57.09;102551.41;5040915;28;20021;-74
2022/08/07 08:37:47;;;;;;;8.82;6.45;;;;;;;19.18;57.88;102540.06;5028460;28;20026;-73
2022/08/07 08:40:21;;;;;;;8.73;7.20;;;;;;;19.15;57.24;102547.41;5033046;28;20243;-75
2022/08/07 08:42:58;;;;;;;9.25;7.18;;;;;;;19.30;55.91;102540.75;5019288;28;20052;-73
2022/08/07 08:45:42;;;;;;;8.80;6.30;;;;;;;19.42;56.96;102550.16;5032361;28;20153;-73
2022/08/07 08:48:23;;;;;;;8.25;6.57;;;;;;;19.34;53.97;102548.22;5014481;28;20388;-72
2022/08/07 08:51:11;;;;;;;8.48;5.97;;;;;;;19.54;56.09;102538.50;5033517;28;20029;-73
2022/08/07 08:54:01;;;;;;;7.93;6.15;;;;;;;19.56;54.03;102541.81;5036454;28;20487;-73
2022/08/07 08:56:31;;;;;;;7.70;6.25;;;;;;;19.53;53.49;102531.56;5045940;28;20029;-74
2022/08/07 08:59:06;;;;;;;9.38;6.43;;;;;;;19.80;54.70;102543.19;5028228;28;20409;-74
2022/08/07 09:01:44;;;;;;;8.00;6.20;;;;;;;19.76;54.36;102536.53;5031249;28;20107;-74
2022/08/07 09:04:20;;;;;;;8.82;6.50;;;;;;;19.94;53.64;102526.88;5030114;28;20028;-73
2022/08/07 09:07:04;;;;;;;7.30;5.82;;;;;;;20.01;54.07;102529.78;5014571;28;20048;-73
2022/08/07 09:10:00;;;;;;;8.10;5.70;;;;;;;20.09;54.03;102537.78;5040689;28;20033;-73
2022/08/07 09:13:22;;;;;;;7.15;5.32;;;;;;;20.05;52.62;102526.69;5040469;28;20834;-72
2022/08/07 09:16:26;;;;;;;6.90;4.75;;;;;;;20.01;50.78;102530.59;5024273;28;20049;-73
2022/08/07 09:19:07;;;;;;;7.07;4.43;;;;;;;20.04;50.53;102519.78;5001850;28;20061;-75
2022/08/07 09:21:46;;;;;;;6.32;4.68;;;;;;;20.06;49.41;102533.63;5035804;28;20350;-73
2022/08/07 09:24:39;;;;;;;7.03;4.32;;;;;;;20.11;50.87;102536.66;5023875;28;20384;-73
2022/08/07 09:27:30;;;;;;;6.68;3.90;;;;;;;20.22;49.71;102533.00;5033888;28;20562;-75
2022/08/07 09:29:58;;;;;;;7.50;4.10;;;;;;;20.30;49.66;102532.25;5026314;28;20025;-73
2022/08/07 09:32:55;;;;;;;6.72;3.92;;;;;;;20.28;49.56;102521.88;5024054;28;20486;-73
2022/08/07 09:35:42;;;;;;;7.32;3.95;;;;;;;20.26;47.85;102523.00;5027031;28;20351;-73
2022/08/07 09:38:35;;;;;;;7.13;4.00;;;;;;;20.60;49.55;102521.44;5031619;28;20037;-75
2022/08/07 09:41:19;;;;;;;6.20;3.65;;;;;;;20.75;50.02;102528.81;5028820;28;20040;-73
2022/08/07 09:44:10;;;;;;;5.80;4.00;;;;;;;20.83;48.73;102515.72;5040328;28;20024;-76
2022/08/07 09:47:07;;;;;;;6.40;4.10;;;;;;;21.03;49.95;102509.28;5040391;28;20033;-73
2022/08/07 09:49:51;;;;;;;5.53;3.55;;;;;;;21.04;47.63;102513.56;5036729;28;20504;-75
2022/08/07 09:52:28;;;;;;;6.18;3.70;;;;;;;20.98;46.87;102503.63;5036611;28;20535;-74
2022/08/07 09:55:03;;;;;;;4.90;3.33;;;;;;;20.89;46.49;102504.56;5029221;28;20043;-73
2022/08/07 09:57:53;;;;;;;4.25;3.00;;;;;;;21.12;47.25;102516.28;5048208;28;20036;-77
2022/08/07 10:00:31;;;;;;;6.40;3.22;;;;;;;21.04;45.36;102505.66;5044402;28;20159;-73
2022/08/07 10:03:02;;;;;;;;;;;;;;;21.27;47.68;102502.50;5032224;28;20111;-74
2022/08/07 10:06:05;;;;;;;5.90;3.00;;;;;;;21.56;46.38;102499.59;5030658;28;19917;-73
2022/08/07 10:08:36;;;;;;;3.08;2.50;;;;;;;21.38;43.76;102499.66;5036448;28;20037;-73
2022/08/07 10:11:11;;;;;;;5.35;2.88;;;;;;;21.19;43.03;102488.28;5047451;28;20100;-73
2022/08/07 10:13:55;;;;;;;6.47;3.20;;;;;;;21.40;45.31;102481.88;5045973;28;20044;-75
2022/08/07 10:16:54;;;;;;;4.47;3.15;;;;;;;21.60;46.22;102478.00;5022200;28;20029;-73
2022/08/07 10:19:47;;;;;;;4.70;3.00;;;;;;;21.72;45.60;102479.38;5030720;28;20404;-75
2022/08/07 10:22:51;;;;;;;6.72;3.22;;;;;;;21.98;45.72;102475.84;5037543;28;20495;-73
2022/08/07 10:25:34;;;;;;;4.57;3.00;;;;;;;21.89;45.22;102482.09;5005401;28;20045;-74
2022/08/07 10:28:14;;;;;;;4.03;2.80;;;;;;;22.08;46.31;102471.28;5031615;28;20057;-74
2022/08/07 10:31:10;;;;;;;4.68;3.00;;;;;;;22.22;46.21;102478.59;5031929;28;20026;-75
2022/08/07 10:34:04;;;;;;;3.90;2.65;;;;;;;22.36;45.05;102471.84;5028302;28;20029;-74
2022/08/07 10:36:39;;;;;;;6.05;3.30;;;;;;;22.07;42.67;102477.53;5031603;28;20536;-73
2022/08/07 10:39:10;;;;;;;4.95;2.53;;;;;;;22.11;43.62;102470.97;5035582;28;20025;-73
2022/08/07 10:41:41;;;;;;;3.75;2.50;;;;;;;22.07;42.18;102472.25;5027355;28;20720;-74
2022/08/07 10:44:39;;;;;;;4.65;2.80;;;;;;;22.38;42.32;102469.06;5030484;28;20024;-74
2022/08/07 10:47:20;;;;;;;4.07;2.50;;;;;;;22.53;43.28;102475.34;5013619;28;20030;-73
2022/08/07 10:50:07;;;;;;;4.38;2.60;;;;;;;22.64;43.06;102468.91;5031391;28;20500;-74
2022/08/07 10:52:37;;;;;;;5.63;2.60;;;;;;;22.73;41.96;102475.84;5035911;28;20025;-74
2022/08/07 10:55:18;;;;;;;4.38;2.47;;;;;;;22.50;40.99;102465.09;5042576;28;20025;-74
2022/08/07 10:57:59;;;;;;;4.22;2.50;;;;;;;22.51;41.45;102461.47;5022432;28;20033;-74
2022/08/07 11:00:32;;;;;;;3.30;2.40;;;;;;;22.55;42.32;102465.44;5029620;28;20073;-73
2022/08/07 11:03:13;;;;;;;3.83;2.50;;;;;;;22.62;42.17;102462.97;5032753;28;20147;-74
2022/08/07 11:05:53;;;;;;;3.88;2.47;;;;;;;22.56;41.00;102464.44;5033339;28;20493;-75
2022/08/07 11:08:24;;;;;;;4.78;2.60;;;;;;;23.04;42.24;102447.75;5022685;28;20377;-73
2022/08/07 11:11:08;;;;;;;4.18;2.38;;;;;;;23.18;42.35;102450.72;5042929;28;20374;-74
2022/08/07 11:13:41;;;;;;;3.22;2.47;;;;;;;23.21;41.00;102448.53;5039126;28;20039;-74
2022/08/07 11:16:25;;;;;;;4.38;2.30;;;;;;;23.49;40.22;102445.50;5042972;28;20071;-74
2022/08/07 11:18:59;;;;;;;5.40;2.33;;;;;;;23.83;40.28;102448.69;5044314;28;20487;-74
2022/08/07 11:22:06;;;;;;;7.05;2.67;;;;;;;23.80;40.88;102443.75;5025570;28;20033;-75
2022/08/07 11:24:56;;;;;;;4.68;2.50;;;;;;;23.80;40.45;102434.97;5024473;28;20041;-74
2022/08/07 11:27:43;;;;;;;3.35;2.38;;;;;;;23.91;39.22;102428.44;5029689;28;20107;-74
2022/08/07 11:30:16;;;;;;;4.20;2.67;;;;;;;23.88;39.98;102434.09;5030322;28;20025;-74
2022/08/07 11:32:57;;;;;;;4.45;2.53;;;;;;;23.69;39.19;102441.47;5028680;28;20478;-74
2022/08/07 11:35:29;;;;;;;3.95;2.28;;;;;;;23.79;38.30;102426.16;5031358;28;20053;-74
2022/08/07 11:38:03;;;;;;;4.60;2.75;;;;;;;23.52;37.89;102423.97;5032596;28;20448;-75
2022/08/07 11:40:40;;;;;;;3.47;2.20;;;;;;;23.88;37.45;102423.50;5031117;28;20021;-74
2022/08/07 11:43:25;;;;;;;4.15;2.65;;;;;;;24.02;38.44;102414.78;5030890;28;20036;-74
2022/08/07 11:46:08;;;;;;;5.63;2.60;;;;;;;24.13;37.39;102411.72;5026706;28;20588;-75
2022/08/07 11:49:01;;;;;;;3.45;2.58;;;;;;;24.00;37.46;102406.19;5036627;28;20511;-75